Hamnavoe — VSTY7 — position and weather

sailwx.info

Track history (hours):
 
Tides and Currents Weather Stations Pressure Air Temp Water Temp Dewpoint Dewpoint Depression Visibility Wind Speed Wind Dir Waves Ship Positions

Hamnavoe

Operator: NorthLink Orkey & Shetland Ferries Ltd

Last reported at 2015-Apr-28 17:09 UTC. Time now 2015-Apr-28 18:22 UTC.
Position N 58°38' W 003°32'.

Length 112 m; draft 4.2 m.

Type: Ship. MMSI: 235449000.

Date/timePositionNaut miles runAvg speedWind from/ knotsBaromVisibWave heightAir tempDewpointWater temp
2015-Apr-28 17:09N 58°38' W 003°32'1017.5
2015-Apr-28 16:33N 58°49' W 003°29'11 8.6
2015-Apr-28 15:17N 58°58' W 003°18'0 0.0
2015-Apr-28 13:29N 58°58' W 003°18'0 0.0
2015-Apr-28 12:29N 58°58' W 003°18'0 0.0
2015-Apr-28 11:29N 58°58' W 003°18'0 0.0
2015-Apr-28 10:29N 58°58' W 003°18'0 0.0
2015-Apr-28 09:29N 58°58' W 003°18'8 8.4
2015-Apr-28 08:33N 58°52' W 003°28'1615.8
2015-Apr-28 07:33N 58°37' W 003°32'6 6.5
2015-Apr-28 06:33N 58°43' W 003°30'1515.3
2015-Apr-28 05:33N 58°57' W 003°17'1 1.0
2015-Apr-28 04:33N 58°58' W 003°18'0 0.0
2015-Apr-28 03:33N 58°58' W 003°18'0 0.0
2015-Apr-28 02:33N 58°58' W 003°18'0 0.0
2015-Apr-28 01:33N 58°58' W 003°18'0 0.0
2015-Apr-28 00:33N 58°58' W 003°18'0 0.0
2015-Apr-27 23:33N 58°58' W 003°18'0 0.0
2015-Apr-27 22:33N 58°58' W 003°18'0 0.0
2015-Apr-27 21:33N 58°58' W 003°18'0 0.0
2015-Apr-27 20:33N 58°58' W 003°18'3 2.8
2015-Apr-27 19:33N 58°56' W 003°14'1312.5
2015-Apr-27 18:31N 58°43' W 003°22'7 5.4
2015-Apr-27 17:14N 58°38' W 003°32'1116.5
2015-Apr-27 16:33N 58°50' W 003°29'1010.1
2015-Apr-27 15:33N 58°58' W 003°18'0 0.0
2015-Apr-27 14:33N 58°58' W 003°18'0 0.0
2015-Apr-27 13:31N 58°58' W 003°18'0 0.0
2015-Apr-27 12:33N 58°58' W 003°18'0 0.0
2015-Apr-27 11:33N 58°58' W 003°18'0 0.0
2015-Apr-27 10:33N 58°58' W 003°18'0 0.0
2015-Apr-27 09:33N 58°58' W 003°18'1110.7
2015-Apr-27 08:33N 58°49' W 003°30'1312.6
2015-Apr-27 07:32N 58°37' W 003°32'8 7.7
2015-Apr-27 06:33N 58°44' W 003°30'1414.2
2015-Apr-27 05:34N 58°57' W 003°18'1 1.0
2015-Apr-27 04:31N 58°58' W 003°18'0 0.0
2015-Apr-27 03:33N 58°58' W 003°18'0 0.0
2015-Apr-27 02:34N 58°58' W 003°18'0 0.0
2015-Apr-27 01:33N 58°58' W 003°18'0 0.0
2015-Apr-27 00:33N 58°58' W 003°18'0 0.0
2015-Apr-26 23:33N 58°58' W 003°18'0 0.0
2015-Apr-26 22:33N 58°58' W 003°18'0 0.0
2015-Apr-26 21:32N 58°58' W 003°18'0 0.0
2015-Apr-26 20:32N 58°58' W 003°18'2 1.7
2015-Apr-26 19:33N 58°57' W 003°16'1413.4
2015-Apr-26 18:32N 58°43' W 003°18'10 9.7
2015-Apr-26 17:31N 58°37' W 003°32'1212.3
2015-Apr-26 16:33N 58°48' W 003°29'11 5.2
2015-Apr-26 14:25N 58°58' W 003°18'0 0.0
2015-Apr-26 13:16N 58°58' W 003°18'0 0.3
2015-Apr-26 12:33N 58°58' W 003°18'1313.1
2015-Apr-26 11:33N 58°46' W 003°31'8 3.6
2015-Apr-26 09:23N 58°38' W 003°32'1417.1
2015-Apr-26 08:33N 58°52' W 003°30'8 8.3
2015-Apr-26 07:33N 58°58' W 003°18'0 0.0
2015-Apr-26 06:33N 58°58' W 003°18'0 0.0
2015-Apr-26 05:33N 58°58' W 003°18'0 0.0
2015-Apr-26 04:21N 58°58' W 003°18'0 0.0
2015-Apr-26 01:18N 58°58' W 003°18'0 0.0
2015-Apr-26 00:33N 58°58' W 003°18'0 0.0
2015-Apr-25 23:33N 58°58' W 003°18'0 0.0
2015-Apr-25 22:33N 58°58' W 003°18'0 0.0
2015-Apr-25 21:33N 58°58' W 003°18'0 0.0
2015-Apr-25 20:33N 58°58' W 003°18'3 3.3
2015-Apr-25 19:33N 58°55' W 003°14'1212.5
2015-Apr-25 18:33N 58°43' W 003°18'10 8.5
2015-Apr-25 17:24N 58°37' W 003°32'1315.6
2015-Apr-25 16:33N 58°50' W 003°30'1010.3
2015-Apr-25 15:33N 58°58' W 003°18'0 0.0
2015-Apr-25 14:29N 58°58' W 003°18'0 0.0
2015-Apr-25 13:32N 58°58' W 003°18'1 1.3
2015-Apr-25 12:34N 58°57' W 003°16'1211.9
2015-Apr-25 11:31N 58°44' W 003°18'11 8.7
2015-Apr-25 10:17N 58°37' W 003°32'0 0.0
2015-Apr-25 09:33N 58°37' W 003°32'1615.6
2015-Apr-25 08:33N 58°52' W 003°28'8 7.2
2015-Apr-25 07:28N 58°58' W 003°18'0 0.0
2015-Apr-25 06:31N 58°58' W 003°18'0 0.0
2015-Apr-25 05:31N 58°58' W 003°18'0 0.0
2015-Apr-25 04:31N 58°58' W 003°18'0 0.0
2015-Apr-25 03:22N 58°58' W 003°18'0 0.0
2015-Apr-25 00:33N 58°58' W 003°18'0 0.0
2015-Apr-24 23:33N 58°58' W 003°18'0 0.0
2015-Apr-24 22:22N 58°58' W 003°18'0 0.0
2015-Apr-24 21:13N 58°58' W 003°18'0 0.0
2015-Apr-24 19:31N 58°58' W 003°18'1212.8
2015-Apr-24 18:33N 58°47' W 003°29'1110.6
2015-Apr-24 17:33N 58°37' W 003°32'1110.8
2015-Apr-24 16:33N 58°47' W 003°29'1211.9
2015-Apr-24 15:33N 58°58' W 003°18'0 0.0
2015-Apr-24 14:30N 58°58' W 003°18'0 0.0
2015-Apr-24 13:33N 58°58' W 003°18'0 0.0
2015-Apr-24 12:30N 58°58' W 003°18'0 0.0
2015-Apr-24 11:33N 58°58' W 003°18'0 0.0
2015-Apr-24 10:32N 58°58' W 003°18'0 0.0
2015-Apr-24 09:32N 58°58' W 003°18'1010.1
2015-Apr-24 08:33N 58°50' W 003°28'13 9.3
2015-Apr-24 07:08N 58°37' W 003°32'712.9
2015-Apr-24 06:33N 58°44' W 003°30'1514.8
2015-Apr-24 05:33N 58°57' W 003°18'1 0.5
2015-Apr-24 04:27N 58°58' W 003°18'0 0.0
2015-Apr-24 03:33N 58°58' W 003°18'0 0.0
2015-Apr-23 22:11N 58°58' W 003°18'0 0.0
2015-Apr-23 21:32N 58°58' W 003°18'0 0.0
2015-Apr-23 20:29N 58°58' W 003°18'0 0.1
2015-Apr-23 19:33N 58°58' W 003°18'1414.2
2015-Apr-23 18:33N 58°45' W 003°31'7 5.0
2015-Apr-23 17:08N 58°38' W 003°32'1017.8
2015-Apr-23 16:34N 58°49' W 003°29'11 9.6
2015-Apr-23 15:25N 58°58' W 003°18'0 0.0
2015-Apr-23 14:33N 58°58' W 003°18'0 0.0
2015-Apr-23 13:33N 58°58' W 003°18'0 0.0
2015-Apr-23 12:33N 58°58' W 003°18'0 0.0
2015-Apr-23 11:33N 58°58' W 003°18'0 0.0
2015-Apr-23 10:33N 58°58' W 003°18'0 0.0
2015-Apr-23 09:33N 58°58' W 003°18'9 9.4
2015-Apr-23 08:33N 58°50' W 003°28'1413.6
2015-Apr-23 07:33N 58°37' W 003°32'8 8.4
2015-Apr-23 06:33N 58°45' W 003°30'1414.1
2015-Apr-23 05:33N 58°58' W 003°18'0 0.2
2015-Apr-23 04:30N 58°58' W 003°18'0 0.0
2015-Apr-23 03:33N 58°58' W 003°18'0 0.0
2015-Apr-23 02:33N 58°58' W 003°18'0 0.0
2015-Apr-23 01:27N 58°58' W 003°18'0 0.0
2015-Apr-23 00:30N 58°58' W 003°18'0 0.0
2015-Apr-22 23:30N 58°58' W 003°18'0 0.0
2015-Apr-22 22:33N 58°58' W 003°18'0 0.0
2015-Apr-22 21:33N 58°58' W 003°18'0 0.0
2015-Apr-22 20:33N 58°58' W 003°18'0 0.0
2015-Apr-22 19:33N 58°58' W 003°18'1212.4
2015-Apr-22 18:33N 58°47' W 003°29'10 8.4
2015-Apr-22 17:19N 58°37' W 003°32'1215.8
2015-Apr-22 16:33N 58°48' W 003°28'1110.1
2015-Apr-22 15:30N 58°58' W 003°18'0 0.0
2015-Apr-22 13:07N 58°58' W 003°18'0 0.0
2015-Apr-22 12:18N 58°58' W 003°18'0 0.0
2015-Apr-22 11:33N 58°58' W 003°18'0 0.0
2015-Apr-22 10:33N 58°58' W 003°18'0 0.0
2015-Apr-22 09:33N 58°58' W 003°18'9 8.9
2015-Apr-22 08:33N 58°51' W 003°29'1414.4
2015-Apr-22 07:33N 58°37' W 003°32'6 6.1
2015-Apr-22 06:33N 58°43' W 003°31'1615.9
2015-Apr-22 05:33N 58°57' W 003°17'1 0.8
2015-Apr-22 04:31N 58°58' W 003°18'0 0.0
2015-Apr-22 03:33N 58°58' W 003°18'0 0.0
2015-Apr-22 02:32N 58°58' W 003°18'0 0.0
2015-Apr-22 01:32N 58°58' W 003°18'0 0.0
2015-Apr-22 00:33N 58°58' W 003°18'0 0.0
2015-Apr-21 23:33N 58°58' W 003°18'0 0.0
2015-Apr-21 22:33N 58°58' W 003°18'0 0.0
2015-Apr-21 21:33N 58°58' W 003°18'0 0.0
2015-Apr-21 20:33N 58°58' W 003°18'0 0.0
2015-Apr-21 19:33N 58°58' W 003°18'1111.3
2015-Apr-21 18:33N 58°48' W 003°29'1211.1
2015-Apr-21 17:30N 58°37' W 003°32'1111.1
2015-Apr-21 16:33N 58°47' W 003°30'1212.5
2015-Apr-21 15:33N 58°58' W 003°18'0 0.0
2015-Apr-21 14:30N 58°58' W 003°18'0 0.0
2015-Apr-21 10:27N 58°58' W 003°18'0 0.0
2015-Apr-21 09:24N 58°58' W 003°18'910.3
2015-Apr-21 08:33N 58°51' W 003°28'7 3.7
2015-Apr-21 06:33N 58°44' W 003°30'1515.2
2015-Apr-21 05:33N 58°57' W 003°18'1 0.5
2015-Apr-21 04:29N 58°58' W 003°18'0 0.0
2015-Apr-21 03:33N 58°58' W 003°18'0 0.0
2015-Apr-21 02:33N 58°58' W 003°18'0 0.0
2015-Apr-21 01:33N 58°58' W 003°18'0 0.0
2015-Apr-21 00:33N 58°58' W 003°18'0 0.0
2015-Apr-20 23:33N 58°58' W 003°18'0 0.0
2015-Apr-20 22:33N 58°58' W 003°18'0 0.0
2015-Apr-20 21:33N 58°58' W 003°18'0 0.0
2015-Apr-20 20:33N 58°58' W 003°18'0 0.0
2015-Apr-20 19:25N 58°58' W 003°18'1113.2
2015-Apr-20 18:34N 58°48' W 003°29'2 0.9
2015-Apr-20 16:33N 58°46' W 003°29'1312.8
2015-Apr-20 15:33N 58°58' W 003°18'0 0.0
2015-Apr-20 14:33N 58°58' W 003°18'0 0.0
2015-Apr-20 13:27N 58°58' W 003°18'0 0.0
2015-Apr-20 12:33N 58°58' W 003°18'0 0.0
2015-Apr-20 11:33N 58°58' W 003°18'0 0.0
2015-Apr-20 10:18N 58°58' W 003°18'0 0.0
2015-Apr-20 09:27N 58°58' W 003°18'910.1
2015-Apr-20 08:33N 58°51' W 003°29'1413.7
2015-Apr-20 07:30N 58°37' W 003°32'7 7.2
2015-Apr-20 06:34N 58°43' W 003°30'1515.3
2015-Apr-20 05:33N 58°57' W 003°18'0 0.5
2015-Apr-20 04:29N 58°58' W 003°18'0 0.0
2015-Apr-20 03:32N 58°58' W 003°18'0 0.0
2015-Apr-20 02:32N 58°58' W 003°18'0 0.0
2015-Apr-20 01:32N 58°58' W 003°18'0 0.0
2015-Apr-20 00:26N 58°58' W 003°18'0 0.0
2015-Apr-19 23:32N 58°58' W 003°18'0 0.0
2015-Apr-19 22:32N 58°58' W 003°18'0 0.0
2015-Apr-19 21:32N 58°58' W 003°18'0 0.0
2015-Apr-19 20:32N 58°58' W 003°18'0 0.0
2015-Apr-19 19:29N 58°58' W 003°18'1111.6
2015-Apr-19 18:33N 58°49' W 003°29'12 9.0
2015-Apr-19 17:12N 58°37' W 003°32'1116.5
2015-Apr-19 16:33N 58°47' W 003°29'1212.3
2015-Apr-19 15:33N 58°58' W 003°18'0 0.0
2015-Apr-19 14:18N 58°58' W 003°18'0 0.0
2015-Apr-19 13:06N 58°58' W 003°18'0 0.0
2015-Apr-19 12:33N 58°58' W 003°18'1211.9
2015-Apr-19 11:33N 58°48' W 003°29'1110.2
2015-Apr-19 10:29N 58°37' W 003°32'0 0.0
2015-Apr-19 09:33N 58°37' W 003°32'1413.8
2015-Apr-19 08:33N 58°50' W 003°29'9 9.4
2015-Apr-19 07:33N 58°58' W 003°18'0 0.0
2015-Apr-19 06:32N 58°58' W 003°18'0 0.0
2015-Apr-19 05:32N 58°58' W 003°18'0 0.0
2015-Apr-19 04:32N 58°58' W 003°18'0 0.0
2015-Apr-19 03:32N 58°58' W 003°18'0 0.0
2015-Apr-19 02:29N 58°58' W 003°18'0 0.0
2015-Apr-19 01:32N 58°58' W 003°18'0 0.0
2015-Apr-19 00:26N 58°58' W 003°18'0 0.0
2015-Apr-18 23:32N 58°58' W 003°18'0 0.0
2015-Apr-18 22:32N 58°58' W 003°18'0 0.0
2015-Apr-18 21:32N 58°58' W 003°18'0 0.0
2015-Apr-18 20:32N 58°58' W 003°18'0 0.0
2015-Apr-18 19:32N 58°58' W 003°18'10 9.9
2015-Apr-18 18:33N 58°50' W 003°29'  
Track history (hours):
 
Tides and Currents Weather Stations Pressure Air Temp Water Temp Dewpoint Dewpoint Depression Visibility Wind Speed Wind Dir Waves Ship Positions

Hamnavoe

Operator: NorthLink Orkey & Shetland Ferries Ltd

Last reported at 2015-Apr-28 17:09 UTC. Time now 2015-Apr-28 18:22 UTC.
Position N 58°38' W 003°32'.

Length 112 m; draft 4.2 m.

Type: Ship. MMSI: 235449000.

Date/timePositionNaut miles runAvg speedWind from/ knotsBaromVisibWave heightAir tempDewpointWater temp
2015-Apr-28 17:09N 58°38' W 003°32'1017.5
2015-Apr-28 16:33N 58°49' W 003°29'11 8.6
2015-Apr-28 15:17N 58°58' W 003°18'0 0.0
2015-Apr-28 13:29N 58°58' W 003°18'0 0.0
2015-Apr-28 12:29N 58°58' W 003°18'0 0.0
2015-Apr-28 11:29N 58°58' W 003°18'0 0.0
2015-Apr-28 10:29N 58°58' W 003°18'0 0.0
2015-Apr-28 09:29N 58°58' W 003°18'8 8.4
2015-Apr-28 08:33N 58°52' W 003°28'1615.8
2015-Apr-28 07:33N 58°37' W 003°32'6 6.5
2015-Apr-28 06:33N 58°43' W 003°30'1515.3
2015-Apr-28 05:33N 58°57' W 003°17'1 1.0
2015-Apr-28 04:33N 58°58' W 003°18'0 0.0
2015-Apr-28 03:33N 58°58' W 003°18'0 0.0
2015-Apr-28 02:33N 58°58' W 003°18'0 0.0
2015-Apr-28 01:33N 58°58' W 003°18'0 0.0
2015-Apr-28 00:33N 58°58' W 003°18'0 0.0
2015-Apr-27 23:33N 58°58' W 003°18'0 0.0
2015-Apr-27 22:33N 58°58' W 003°18'0 0.0
2015-Apr-27 21:33N 58°58' W 003°18'0 0.0
2015-Apr-27 20:33N 58°58' W 003°18'3 2.8
2015-Apr-27 19:33N 58°56' W 003°14'1312.5
2015-Apr-27 18:31N 58°43' W 003°22'7 5.4
2015-Apr-27 17:14N 58°38' W 003°32'1116.5
2015-Apr-27 16:33N 58°50' W 003°29'1010.1
2015-Apr-27 15:33N 58°58' W 003°18'0 0.0
2015-Apr-27 14:33N 58°58' W 003°18'0 0.0
2015-Apr-27 13:31N 58°58' W 003°18'0 0.0
2015-Apr-27 12:33N 58°58' W 003°18'0 0.0
2015-Apr-27 11:33N 58°58' W 003°18'0 0.0
2015-Apr-27 10:33N 58°58' W 003°18'0 0.0
2015-Apr-27 09:33N 58°58' W 003°18'1110.7
2015-Apr-27 08:33N 58°49' W 003°30'1312.6
2015-Apr-27 07:32N 58°37' W 003°32'8 7.7
2015-Apr-27 06:33N 58°44' W 003°30'1414.2
2015-Apr-27 05:34N 58°57' W 003°18'1 1.0
2015-Apr-27 04:31N 58°58' W 003°18'0 0.0
2015-Apr-27 03:33N 58°58' W 003°18'0 0.0
2015-Apr-27 02:34N 58°58' W 003°18'0 0.0
2015-Apr-27 01:33N 58°58' W 003°18'0 0.0
2015-Apr-27 00:33N 58°58' W 003°18'0 0.0
2015-Apr-26 23:33N 58°58' W 003°18'0 0.0
2015-Apr-26 22:33N 58°58' W 003°18'0 0.0
2015-Apr-26 21:32N 58°58' W 003°18'0 0.0
2015-Apr-26 20:32N 58°58' W 003°18'2 1.7
2015-Apr-26 19:33N 58°57' W 003°16'1413.4
2015-Apr-26 18:32N 58°43' W 003°18'10 9.7
2015-Apr-26 17:31N 58°37' W 003°32'1212.3
2015-Apr-26 16:33N 58°48' W 003°29'11 5.2
2015-Apr-26 14:25N 58°58' W 003°18'0 0.0
2015-Apr-26 13:16N 58°58' W 003°18'0 0.3
2015-Apr-26 12:33N 58°58' W 003°18'1313.1
2015-Apr-26 11:33N 58°46' W 003°31'8 3.6
2015-Apr-26 09:23N 58°38' W 003°32'1417.1
2015-Apr-26 08:33N 58°52' W 003°30'8 8.3
2015-Apr-26 07:33N 58°58' W 003°18'0 0.0
2015-Apr-26 06:33N 58°58' W 003°18'0 0.0
2015-Apr-26 05:33N 58°58' W 003°18'0 0.0
2015-Apr-26 04:21N 58°58' W 003°18'0 0.0
2015-Apr-26 01:18N 58°58' W 003°18'0 0.0
2015-Apr-26 00:33N 58°58' W 003°18'0 0.0
2015-Apr-25 23:33N 58°58' W 003°18'0 0.0
2015-Apr-25 22:33N 58°58' W 003°18'0 0.0
2015-Apr-25 21:33N 58°58' W 003°18'0 0.0
2015-Apr-25 20:33N 58°58' W 003°18'3 3.3
2015-Apr-25 19:33N 58°55' W 003°14'1212.5
2015-Apr-25 18:33N 58°43' W 003°18'10 8.5
2015-Apr-25 17:24N 58°37' W 003°32'1315.6
2015-Apr-25 16:33N 58°50' W 003°30'1010.3
2015-Apr-25 15:33N 58°58' W 003°18'0 0.0
2015-Apr-25 14:29N 58°58' W 003°18'0 0.0
2015-Apr-25 13:32N 58°58' W 003°18'1 1.3
2015-Apr-25 12:34N 58°57' W 003°16'1211.9
2015-Apr-25 11:31N 58°44' W 003°18'11 8.7
2015-Apr-25 10:17N 58°37' W 003°32'0 0.0
2015-Apr-25 09:33N 58°37' W 003°32'1615.6
2015-Apr-25 08:33N 58°52' W 003°28'8 7.2
2015-Apr-25 07:28N 58°58' W 003°18'0 0.0
2015-Apr-25 06:31N 58°58' W 003°18'0 0.0
2015-Apr-25 05:31N 58°58' W 003°18'0 0.0
2015-Apr-25 04:31N 58°58' W 003°18'0 0.0
2015-Apr-25 03:22N 58°58' W 003°18'0 0.0
2015-Apr-25 00:33N 58°58' W 003°18'0 0.0
2015-Apr-24 23:33N 58°58' W 003°18'0 0.0
2015-Apr-24 22:22N 58°58' W 003°18'0 0.0
2015-Apr-24 21:13N 58°58' W 003°18'0 0.0
2015-Apr-24 19:31N 58°58' W 003°18'1212.8
2015-Apr-24 18:33N 58°47' W 003°29'1110.6
2015-Apr-24 17:33N 58°37' W 003°32'1110.8
2015-Apr-24 16:33N 58°47' W 003°29'1211.9
2015-Apr-24 15:33N 58°58' W 003°18'0 0.0
2015-Apr-24 14:30N 58°58' W 003°18'0 0.0
2015-Apr-24 13:33N 58°58' W 003°18'0 0.0
2015-Apr-24 12:30N 58°58' W 003°18'0 0.0
2015-Apr-24 11:33N 58°58' W 003°18'0 0.0
2015-Apr-24 10:32N 58°58' W 003°18'0 0.0
2015-Apr-24 09:32N 58°58' W 003°18'1010.1
2015-Apr-24 08:33N 58°50' W 003°28'13 9.3
2015-Apr-24 07:08N 58°37' W 003°32'712.9
2015-Apr-24 06:33N 58°44' W 003°30'1514.8
2015-Apr-24 05:33N 58°57' W 003°18'1 0.5
2015-Apr-24 04:27N 58°58' W 003°18'0 0.0
2015-Apr-24 03:33N 58°58' W 003°18'0 0.0
2015-Apr-23 22:11N 58°58' W 003°18'0 0.0
2015-Apr-23 21:32N 58°58' W 003°18'0 0.0
2015-Apr-23 20:29N 58°58' W 003°18'0 0.1
2015-Apr-23 19:33N 58°58' W 003°18'1414.2
2015-Apr-23 18:33N 58°45' W 003°31'7 5.0
2015-Apr-23 17:08N 58°38' W 003°32'1017.8
2015-Apr-23 16:34N 58°49' W 003°29'11 9.6
2015-Apr-23 15:25N 58°58' W 003°18'0 0.0
2015-Apr-23 14:33N 58°58' W 003°18'0 0.0
2015-Apr-23 13:33N 58°58' W 003°18'0 0.0
2015-Apr-23 12:33N 58°58' W 003°18'0 0.0
2015-Apr-23 11:33N 58°58' W 003°18'0 0.0
2015-Apr-23 10:33N 58°58' W 003°18'0 0.0
2015-Apr-23 09:33N 58°58' W 003°18'9 9.4
2015-Apr-23 08:33N 58°50' W 003°28'1413.6
2015-Apr-23 07:33N 58°37' W 003°32'8 8.4
2015-Apr-23 06:33N 58°45' W 003°30'1414.1
2015-Apr-23 05:33N 58°58' W 003°18'0 0.2
2015-Apr-23 04:30N 58°58' W 003°18'0 0.0
2015-Apr-23 03:33N 58°58' W 003°18'0 0.0
2015-Apr-23 02:33N 58°58' W 003°18'0 0.0
2015-Apr-23 01:27N 58°58' W 003°18'0 0.0
2015-Apr-23 00:30N 58°58' W 003°18'0 0.0
2015-Apr-22 23:30N 58°58' W 003°18'0 0.0
2015-Apr-22 22:33N 58°58' W 003°18'0 0.0
2015-Apr-22 21:33N 58°58' W 003°18'0 0.0
2015-Apr-22 20:33N 58°58' W 003°18'0 0.0
2015-Apr-22 19:33N 58°58' W 003°18'1212.4
2015-Apr-22 18:33N 58°47' W 003°29'10 8.4
2015-Apr-22 17:19N 58°37' W 003°32'1215.8
2015-Apr-22 16:33N 58°48' W 003°28'1110.1
2015-Apr-22 15:30N 58°58' W 003°18'0 0.0
2015-Apr-22 13:07N 58°58' W 003°18'0 0.0
2015-Apr-22 12:18N 58°58' W 003°18'0 0.0
2015-Apr-22 11:33N 58°58' W 003°18'0 0.0
2015-Apr-22 10:33N 58°58' W 003°18'0 0.0
2015-Apr-22 09:33N 58°58' W 003°18'9 8.9
2015-Apr-22 08:33N 58°51' W 003°29'1414.4
2015-Apr-22 07:33N 58°37' W 003°32'6 6.1
2015-Apr-22 06:33N 58°43' W 003°31'1615.9
2015-Apr-22 05:33N 58°57' W 003°17'1 0.8
2015-Apr-22 04:31N 58°58' W 003°18'0 0.0
2015-Apr-22 03:33N 58°58' W 003°18'0 0.0
2015-Apr-22 02:32N 58°58' W 003°18'0 0.0
2015-Apr-22 01:32N 58°58' W 003°18'0 0.0
2015-Apr-22 00:33N 58°58' W 003°18'0 0.0
2015-Apr-21 23:33N 58°58' W 003°18'0 0.0
2015-Apr-21 22:33N 58°58' W 003°18'0 0.0
2015-Apr-21 21:33N 58°58' W 003°18'0 0.0
2015-Apr-21 20:33N 58°58' W 003°18'0 0.0
2015-Apr-21 19:33N 58°58' W 003°18'1111.3
2015-Apr-21 18:33N 58°48' W 003°29'1211.1
2015-Apr-21 17:30N 58°37' W 003°32'1111.1
2015-Apr-21 16:33N 58°47' W 003°30'1212.5
2015-Apr-21 15:33N 58°58' W 003°18'0 0.0
2015-Apr-21 14:30N 58°58' W 003°18'0 0.0
2015-Apr-21 10:27N 58°58' W 003°18'0 0.0
2015-Apr-21 09:24N 58°58' W 003°18'910.3
2015-Apr-21 08:33N 58°51' W 003°28'7 3.7
2015-Apr-21 06:33N 58°44' W 003°30'1515.2
2015-Apr-21 05:33N 58°57' W 003°18'1 0.5
2015-Apr-21 04:29N 58°58' W 003°18'0 0.0
2015-Apr-21 03:33N 58°58' W 003°18'0 0.0
2015-Apr-21 02:33N 58°58' W 003°18'0 0.0
2015-Apr-21 01:33N 58°58' W 003°18'0 0.0
2015-Apr-21 00:33N 58°58' W 003°18'0 0.0
2015-Apr-20 23:33N 58°58' W 003°18'0 0.0
2015-Apr-20 22:33N 58°58' W 003°18'0 0.0
2015-Apr-20 21:33N 58°58' W 003°18'0 0.0
2015-Apr-20 20:33N 58°58' W 003°18'0 0.0
2015-Apr-20 19:25N 58°58' W 003°18'1113.2
2015-Apr-20 18:34N 58°48' W 003°29'2 0.9
2015-Apr-20 16:33N 58°46' W 003°29'1312.8
2015-Apr-20 15:33N 58°58' W 003°18'0 0.0
2015-Apr-20 14:33N 58°58' W 003°18'0 0.0
2015-Apr-20 13:27N 58°58' W 003°18'0 0.0
2015-Apr-20 12:33N 58°58' W 003°18'0 0.0
2015-Apr-20 11:33N 58°58' W 003°18'0 0.0
2015-Apr-20 10:18N 58°58' W 003°18'0 0.0
2015-Apr-20 09:27N 58°58' W 003°18'910.1
2015-Apr-20 08:33N 58°51' W 003°29'1413.7
2015-Apr-20 07:30N 58°37' W 003°32'7 7.2
2015-Apr-20 06:34N 58°43' W 003°30'1515.3
2015-Apr-20 05:33N 58°57' W 003°18'0 0.5
2015-Apr-20 04:29N 58°58' W 003°18'0 0.0
2015-Apr-20 03:32N 58°58' W 003°18'0 0.0
2015-Apr-20 02:32N 58°58' W 003°18'0 0.0
2015-Apr-20 01:32N 58°58' W 003°18'0 0.0
2015-Apr-20 00:26N 58°58' W 003°18'0 0.0
2015-Apr-19 23:32N 58°58' W 003°18'0 0.0
2015-Apr-19 22:32N 58°58' W 003°18'0 0.0
2015-Apr-19 21:32N 58°58' W 003°18'0 0.0
2015-Apr-19 20:32N 58°58' W 003°18'0 0.0
2015-Apr-19 19:29N 58°58' W 003°18'1111.6
2015-Apr-19 18:33N 58°49' W 003°29'12 9.0
2015-Apr-19 17:12N 58°37' W 003°32'1116.5
2015-Apr-19 16:33N 58°47' W 003°29'1212.3
2015-Apr-19 15:33N 58°58' W 003°18'0 0.0
2015-Apr-19 14:18N 58°58' W 003°18'0 0.0
2015-Apr-19 13:06N 58°58' W 003°18'0 0.0
2015-Apr-19 12:33N 58°58' W 003°18'1211.9
2015-Apr-19 11:33N 58°48' W 003°29'1110.2
2015-Apr-19 10:29N 58°37' W 003°32'0 0.0
2015-Apr-19 09:33N 58°37' W 003°32'1413.8
2015-Apr-19 08:33N 58°50' W 003°29'9 9.4
2015-Apr-19 07:33N 58°58' W 003°18'0 0.0
2015-Apr-19 06:32N 58°58' W 003°18'0 0.0
2015-Apr-19 05:32N 58°58' W 003°18'0 0.0
2015-Apr-19 04:32N 58°58' W 003°18'0 0.0
2015-Apr-19 03:32N 58°58' W 003°18'0 0.0
2015-Apr-19 02:29N 58°58' W 003°18'0 0.0
2015-Apr-19 01:32N 58°58' W 003°18'0 0.0
2015-Apr-19 00:26N 58°58' W 003°18'0 0.0
2015-Apr-18 23:32N 58°58' W 003°18'0 0.0
2015-Apr-18 22:32N 58°58' W 003°18'0 0.0
2015-Apr-18 21:32N 58°58' W 003°18'0 0.0
2015-Apr-18 20:32N 58°58' W 003°18'0 0.0
2015-Apr-18 19:32N 58°58' W 003°18'10 9.9
2015-Apr-18 18:33N 58°50' W 003°29'  

Dump ship's entire track history